BTK112 WIII-WARA
Flight info
| Callsign | BTK112 |
|---|---|
| Flight time | N/A |
| Altitude | 33000 |
| Route | CA2A CA W45 SBR SBR1D |
| Aircraft | A320/M-SDE3FGHIRWY/LB1 |
Departure
| Time | N/A |
|---|---|
| Airport | Soekarno-Hatta International Airport (WIII) |
Arrival
| Time | 2026-05-09 07:15 |
|---|---|
| Airport | Abdul Rachman Saleh Airport (WARA) |
| Time | Latitude | Longitude | Altitude | Speed | Heading |
|---|---|---|---|---|---|
| 2026-05-09 07:01 | -7.95081 | 112.71127 | 12743 ft | 271 kts | 186° |
| 2026-05-09 07:01 | -7.96966 | 112.70940 | 12374 ft | 273 kts | 186° |
| 2026-05-09 07:01 | -7.98867 | 112.70754 | 12014 ft | 275 kts | 186° |
| 2026-05-09 07:02 | -8.00778 | 112.70567 | 11648 ft | 277 kts | 186° |
| 2026-05-09 07:02 | -8.02700 | 112.70378 | 11274 ft | 278 kts | 186° |
| 2026-05-09 07:02 | -8.04624 | 112.70189 | 10997 ft | 277 kts | 186° |
| 2026-05-09 07:02 | -8.06533 | 112.70003 | 10703 ft | 275 kts | 186° |
| 2026-05-09 07:03 | -8.08447 | 112.69815 | 10361 ft | 276 kts | 186° |
| 2026-05-09 07:03 | -8.10297 | 112.69630 | 10239 ft | 264 kts | 186° |
| 2026-05-09 07:03 | -8.12174 | 112.69444 | 9660 ft | 276 kts | 186° |
| 2026-05-09 07:03 | -8.14084 | 112.69256 | 9220 ft | 274 kts | 186° |
| 2026-05-09 07:04 | -8.15960 | 112.69070 | 8922 ft | 265 kts | 186° |
| 2026-05-09 07:04 | -8.17748 | 112.68893 | 8761 ft | 252 kts | 186° |
| 2026-05-09 07:04 | -8.19452 | 112.68724 | 8562 ft | 240 kts | 186° |
| 2026-05-09 07:04 | -8.21082 | 112.68583 | 8391 ft | 228 kts | 180° |
| 2026-05-09 07:05 | -8.22588 | 112.68818 | 8199 ft | 214 kts | 161° |
| 2026-05-09 07:05 | -8.23877 | 112.69473 | 7993 ft | 201 kts | 142° |
| 2026-05-09 07:05 | -8.24860 | 112.70423 | 7795 ft | 192 kts | 126° |
| 2026-05-09 07:05 | -8.25514 | 112.71564 | 7607 ft | 185 kts | 109° |
| 2026-05-09 07:06 | -8.25829 | 112.72775 | 7423 ft | 173 kts | 94° |
| 2026-05-09 07:06 | -8.25829 | 112.73948 | 7220 ft | 164 kts | 80° |
| 2026-05-09 07:06 | -8.25563 | 112.75051 | 7032 ft | 161 kts | 66° |
| 2026-05-09 07:06 | -8.25059 | 112.76046 | 6861 ft | 159 kts | 54° |
| 2026-05-09 07:07 | -8.24349 | 112.76890 | 6658 ft | 157 kts | 40° |
| 2026-05-09 07:07 | -8.23476 | 112.77539 | 6459 ft | 155 kts | 27° |
| 2026-05-09 07:07 | -8.22487 | 112.77972 | 6272 ft | 155 kts | 15° |
| 2026-05-09 07:07 | -8.21428 | 112.78136 | 6106 ft | 154 kts | 355° |
| 2026-05-09 07:08 | -8.20368 | 112.78015 | 6034 ft | 155 kts | 351° |
| 2026-05-09 07:08 | -8.19312 | 112.77818 | 6014 ft | 154 kts | 347° |
| 2026-05-09 07:08 | -8.18255 | 112.77586 | 6016 ft | 156 kts | 346° |
| 2026-05-09 07:08 | -8.17201 | 112.77340 | 6001 ft | 155 kts | 346° |
| 2026-05-09 07:09 | -8.16150 | 112.77088 | 5895 ft | 156 kts | 346° |
| 2026-05-09 07:09 | -8.15106 | 112.76836 | 5734 ft | 153 kts | 346° |
| 2026-05-09 07:09 | -8.14062 | 112.76582 | 5549 ft | 154 kts | 346° |
| 2026-05-09 07:09 | -8.13016 | 112.76328 | 5358 ft | 155 kts | 346° |
| 2026-05-09 07:10 | -8.11967 | 112.76073 | 5161 ft | 155 kts | 346° |
| 2026-05-09 07:10 | -8.10922 | 112.75818 | 4966 ft | 155 kts | 346° |
| 2026-05-09 07:10 | -8.09873 | 112.75563 | 4775 ft | 155 kts | 346° |
| 2026-05-09 07:10 | -8.08822 | 112.75307 | 4572 ft | 155 kts | 346° |
| 2026-05-09 07:11 | -8.07773 | 112.75052 | 4372 ft | 155 kts | 346° |
| 2026-05-09 07:11 | -8.06723 | 112.74796 | 4163 ft | 155 kts | 346° |
| 2026-05-09 07:11 | -8.05677 | 112.74541 | 3972 ft | 154 kts | 346° |
| 2026-05-09 07:11 | -8.04646 | 112.74290 | 3774 ft | 154 kts | 346° |
| 2026-05-09 07:12 | -8.03603 | 112.74036 | 3586 ft | 154 kts | 346° |
| 2026-05-09 07:12 | -8.02561 | 112.73783 | 3405 ft | 153 kts | 346° |
| 2026-05-09 07:12 | -8.01525 | 112.73531 | 3231 ft | 152 kts | 345° |
| 2026-05-09 07:12 | -8.00499 | 112.73281 | 3046 ft | 151 kts | 346° |
| 2026-05-09 07:13 | -7.99479 | 112.73033 | 2855 ft | 150 kts | 345° |
| 2026-05-09 07:13 | -7.98471 | 112.72787 | 2648 ft | 149 kts | 346° |
| 2026-05-09 07:13 | -7.97464 | 112.72542 | 2452 ft | 148 kts | 345° |
| 2026-05-09 07:13 | -7.96456 | 112.72297 | 2247 ft | 149 kts | 346° |
| 2026-05-09 07:14 | -7.95449 | 112.72052 | 2044 ft | 149 kts | 346° |
| 2026-05-09 07:14 | -7.94442 | 112.71808 | 1840 ft | 149 kts | 346° |
| 2026-05-09 07:14 | -7.93441 | 112.71567 | 1718 ft | 142 kts | 346° |
| 2026-05-09 07:14 | -7.92643 | 112.71365 | 1719 ft | 94 kts | 346° |
| 2026-05-09 07:15 | -7.92201 | 112.71258 | 1715 ft | 40 kts | 346° |
| 2026-05-09 07:15 | -7.92012 | 112.71217 | 1708 ft | 18 kts | 6° |
| 2026-05-09 07:15 | -7.91976 | 112.71279 | 1715 ft | 9 kts | 76° |
| 2026-05-09 07:15 | -7.91963 | 112.71342 | 1715 ft | 9 kts | 91° |
| 2026-05-09 07:16 | -7.92016 | 112.71381 | 1716 ft | 12 kts | 166° |
| 2026-05-09 07:16 | -7.92103 | 112.71403 | 1716 ft | 14 kts | 166° |
| 2026-05-09 07:16 | -7.92202 | 112.71428 | 1719 ft | 15 kts | 166° |
| 2026-05-09 07:16 | -7.92310 | 112.71455 | 1711 ft | 17 kts | 166° |
| 2026-05-09 07:17 | -7.92427 | 112.71484 | 1717 ft | 18 kts | 166° |
| 2026-05-09 07:17 | -7.92554 | 112.71513 | 1715 ft | 19 kts | 168° |
| 2026-05-09 07:17 | -7.92690 | 112.71546 | 1715 ft | 21 kts | 166° |
| 2026-05-09 07:17 | -7.92834 | 112.71582 | 1714 ft | 22 kts | 166° |
| 2026-05-09 07:18 | -7.92985 | 112.71619 | 1716 ft | 23 kts | 166° |
| 2026-05-09 07:18 | -7.93142 | 112.71658 | 1715 ft | 24 kts | 167° |
| 2026-05-09 07:18 | -7.93303 | 112.71697 | 1716 ft | 21 kts | 166° |
| 2026-05-09 07:18 | -7.93413 | 112.71723 | 1716 ft | 14 kts | 166° |
| 2026-05-09 07:19 | -7.93486 | 112.71714 | 1713 ft | 10 kts | 236° |
| 2026-05-09 07:19 | -7.93506 | 112.71640 | 1713 ft | 12 kts | 257° |
| 2026-05-09 07:19 | -7.93526 | 112.71557 | 1716 ft | 13 kts | 256° |
| 2026-05-09 07:19 | -7.93550 | 112.71459 | 1712 ft | 15 kts | 256° |
| 2026-05-09 07:20 | -7.93575 | 112.71352 | 1714 ft | 17 kts | 257° |
| 2026-05-09 07:20 | -7.93604 | 112.71267 | 1708 ft | 9 kts | 217° |
| 2026-05-09 07:20 | -7.93647 | 112.71269 | 1710 ft | 7 kts | 168° |
| 2026-05-09 07:20 | -7.93697 | 112.71282 | 1710 ft | 8 kts | 165° |
| 2026-05-09 07:21 | -7.93745 | 112.71262 | 1716 ft | 8 kts | 200° |
| 2026-05-09 07:21 | -7.93774 | 112.71235 | 1712 ft | 0 kts | 250° |